Ava, Ohio
Current Conditions -  °F | °C
As of 12:53 PM on Sunday 21 Dec 2014 (Local Time) from KZZV Reporting Station
Overcast Overcast  
Wind Chill: 32°   Ceiling: 2200
Heat Index: 32°   Visibility: 9mi
Dew Point: 22°   Wind: 0mph
Humidity: 66%   Direction: NA
Pressure: 30.27"   Gusts: NA
Location:  39.83°N, 81.57°W
Report Text: KZZV 211753Z AUTO 00000KT 9SM OVC022 00/M06 A3027 RMK AO2 SLP259 T00001056 10000 21017 58020
Loading
Personal Weather Stations






























Interactive Weather Map New forecast layout! Learn more

10-Day Weather Forecast

Advertisements
Track Severe Weather on mobile